Time;durP1;ratioP1;P1;durP2;ratioP2;P2;SDS_P1;SDS_P2;PMS_P1;PMS_P2;Temp;Humidity;BMP_temperature;BMP_pressure;BME280_temperature;BME280_humidity;BME280_pressure;Samples;Min_cycle;Max_cycle;Signal;HPM_P1;HPM_P2
2023/07/10 00:00:40;;;;;;;5.20;3.80;;;;;;;17.92;45.13;101292.32;106174;1286;71443;-83
2023/07/10 00:03:28;;;;;;;5.50;4.10;;;;;;;17.90;45.15;101289.91;105413;1286;61193;-83
2023/07/10 00:06:16;;;;;;;7.10;4.50;;;;;;;17.86;45.44;101288.13;105346;1286;60837;-82
2023/07/10 00:09:02;;;;;;;6.10;3.90;;;;;;;17.81;45.50;101288.65;105220;1287;73347;-83
2023/07/10 00:11:49;;;;;;;8.30;3.20;;;;;;;17.71;45.65;101284.14;105326;1286;67278;-83
2023/07/10 00:14:36;;;;;;;6.60;3.60;;;;;;;17.66;45.71;101284.70;105259;1286;71655;-83
2023/07/10 00:17:22;;;;;;;5.80;3.90;;;;;;;17.63;45.89;101288.41;105234;1286;61274;-82
2023/07/10 00:20:16;;;;;;;9.10;4.20;;;;;;;17.64;45.97;101286.13;105309;1286;59372;-83
2023/07/10 00:23:03;;;;;;;7.50;4.00;;;;;;;17.64;46.05;101290.48;105181;1289;74696;-83
2023/07/10 00:25:49;;;;;;;5.00;3.90;;;;;;;17.64;46.13;101287.70;105126;1286;67226;-83
2023/07/10 00:28:36;;;;;;;5.60;3.60;;;;;;;17.60;46.14;101287.13;105366;1286;71282;-82
2023/07/10 00:31:27;;;;;;;5.40;3.00;;;;;;;17.62;46.32;101285.67;105324;1286;61113;-83
2023/07/10 00:34:15;;;;;;;5.20;3.30;;;;;;;17.63;46.34;101284.41;105226;1286;61221;-83
2023/07/10 00:37:01;;;;;;;4.70;2.90;;;;;;;17.63;46.44;101284.40;105357;1286;73272;-83
2023/07/10 00:39:52;;;;;;;4.30;3.20;;;;;;;17.62;46.55;101276.09;105049;1286;255597;-82
2023/07/10 00:42:39;;;;;;;4.40;2.80;;;;;;;17.56;46.68;101271.23;105091;1286;71154;-83
2023/07/10 00:45:25;;;;;;;4.30;3.00;;;;;;;17.54;46.83;101267.29;105423;1286;61259;-83
2023/07/10 00:48:29;;;;;;;3.50;2.80;;;;;;;17.52;46.88;101267.36;105381;1286;59617;-82
2023/07/10 00:51:24;;;;;;;3.20;2.90;;;;;;;17.52;46.91;101265.79;105398;1286;76049;-83
2023/07/10 00:54:29;;;;;;;4.30;3.00;;;;;;;17.46;47.07;101262.66;105311;1291;67463;-82
2023/07/10 00:57:20;;;;;;;3.50;3.20;;;;;;;17.42;47.10;101263.00;105345;1291;71626;-82
2023/07/10 01:00:19;;;;;;;4.40;2.90;;;;;;;17.45;47.21;101270.04;105352;1286;62506;-83
2023/07/10 01:03:13;;;;;;;4.50;3.20;;;;;;;17.45;47.28;101275.27;105354;1288;61176;-83
2023/07/10 01:06:25;;;;;;;4.80;3.20;;;;;;;17.45;47.41;101279.64;105417;1286;73656;-83
2023/07/10 01:09:12;;;;;;;3.70;3.20;;;;;;;17.44;47.51;101281.05;105361;1288;71345;-82
2023/07/10 01:11:58;;;;;;;5.60;3.20;;;;;;;17.40;47.53;101284.85;105199;1287;74171;-83
2023/07/10 01:14:45;;;;;;;4.30;3.30;;;;;;;17.41;47.66;101293.01;105084;1286;61170;-82
2023/07/10 01:17:33;;;;;;;10.00;2.90;;;;;;;17.39;47.73;101291.83;105406;1286;61215;-83
2023/07/10 01:20:40;;;;;;;5.30;3.40;;;;;;;17.40;47.81;101288.66;105215;1289;72179;-83
2023/07/10 01:23:26;;;;;;;5.10;2.80;;;;;;;17.41;47.91;101293.52;105343;1286;67150;-83
2023/07/10 01:26:13;;;;;;;3.30;2.50;;;;;;;17.31;47.89;101287.92;105291;1286;72266;-83
2023/07/10 01:28:59;;;;;;;4.20;2.60;;;;;;;17.27;48.08;101290.67;105071;1286;61460;-83
2023/07/10 01:31:48;;;;;;;4.40;3.00;;;;;;;17.28;48.18;101288.55;106165;1286;59199;-83
2023/07/10 01:34:39;;;;;;;3.00;2.80;;;;;;;17.26;48.23;101288.63;105313;1286;75823;-83
2023/07/10 01:37:25;;;;;;;3.60;3.20;;;;;;;17.23;48.34;101287.34;105321;1286;68698;-83
2023/07/10 01:40:20;;;;;;;4.50;2.90;;;;;;;17.20;48.34;101287.25;105323;1287;71744;-82
2023/07/10 01:43:09;;;;;;;2.70;2.30;;;;;;;17.19;48.46;101287.63;104981;1286;61161;-83
2023/07/10 01:45:55;;;;;;;5.00;3.40;;;;;;;17.19;48.57;101284.99;105140;1288;61548;-83
2023/07/10 01:48:41;;;;;;;3.60;3.20;;;;;;;17.18;48.64;101282.23;105259;1286;77532;-83
2023/07/10 01:51:28;;;;;;;5.90;3.10;;;;;;;17.17;48.72;101283.33;105294;1287;67465;-83
2023/07/10 01:54:15;;;;;;;3.80;3.10;;;;;;;17.17;48.75;101288.55;105371;1286;72900;-83
2023/07/10 01:57:02;;;;;;;5.10;2.80;;;;;;;17.15;48.88;101290.05;105270;1286;63033;-83
2023/07/10 01:59:49;;;;;;;3.90;2.90;;;;;;;17.14;48.80;101297.23;105404;1286;62250;-83
2023/07/10 02:02:35;;;;;;;5.30;2.80;;;;;;;17.11;48.85;101298.02;105396;1286;74331;-83
2023/07/10 02:05:21;;;;;;;4.30;3.30;;;;;;;17.09;49.01;101293.03;105310;1287;67153;-83
2023/07/10 02:08:08;;;;;;;5.40;3.10;;;;;;;17.05;49.06;101284.98;105272;1286;71730;-83
2023/07/10 02:10:54;;;;;;;3.50;3.20;;;;;;;16.96;49.21;101284.55;104912;1286;61194;-83
2023/07/10 02:13:40;;;;;;;3.30;3.00;;;;;;;16.92;49.39;101281.91;105310;1287;59411;-83
2023/07/10 02:16:26;;;;;;;7.50;3.00;;;;;;;16.93;49.48;101278.73;105260;1286;73015;-83
2023/07/10 02:19:13;;;;;;;3.10;2.70;;;;;;;16.92;49.59;101274.58;105207;1286;69943;-82
2023/07/10 02:21:59;;;;;;;4.00;3.20;;;;;;;16.87;49.69;101278.03;105313;1291;72981;-83
2023/07/10 02:24:45;;;;;;;9.50;3.00;;;;;;;16.88;49.70;101275.05;105212;1286;59459;-82
2023/07/10 02:27:31;;;;;;;3.60;2.90;;;;;;;16.93;49.76;101274.04;105141;1286;61354;-83
2023/07/10 02:30:17;;;;;;;;;;;;;;;16.95;49.85;101268.23;105147;1291;76027;-83
2023/07/10 02:33:05;;;;;;;4.90;3.00;;;;;;;16.95;49.85;101269.61;105380;1286;68075;-82
2023/07/10 02:35:51;;;;;;;;;;;;;;;16.95;49.98;101271.70;105372;1288;76632;-83
2023/07/10 02:38:37;;;;;;;3.70;2.50;;;;;;;16.84;50.01;101265.80;105288;1287;61221;-83
2023/07/10 02:41:24;;;;;;;3.00;2.70;;;;;;;16.82;50.03;101262.00;105332;1286;61691;-83
2023/07/10 02:44:10;;;;;;;3.70;2.90;;;;;;;16.84;50.02;101266.83;105294;1286;74491;-83
2023/07/10 02:46:56;;;;;;;6.50;3.00;;;;;;;16.85;50.07;101267.83;105279;1286;67169;-83
2023/07/10 02:49:42;;;;;;;3.40;2.70;;;;;;;16.87;50.07;101262.38;105172;1288;72653;-83
2023/07/10 02:52:28;;;;;;;5.90;2.80;;;;;;;16.88;50.26;101257.98;105080;1287;61128;-83
2023/07/10 02:55:14;;;;;;;3.60;2.80;;;;;;;16.90;50.35;101247.14;105165;1286;61288;-83
2023/07/10 02:58:02;;;;;;;5.60;3.10;;;;;;;16.90;50.43;101250.98;105271;1288;73236;-83
2023/07/10 03:00:57;;;;;;;3.70;3.00;;;;;;;16.91;50.48;101254.08;105317;1287;67239;-83
2023/07/10 03:03:45;;;;;;;2.90;2.60;;;;;;;16.91;50.63;101266.45;105250;1286;71456;-83
2023/07/10 03:06:32;;;;;;;6.00;3.20;;;;;;;16.87;50.65;101264.81;105378;1287;61201;-83
2023/07/10 03:09:18;;;;;;;3.20;2.70;;;;;;;16.88;50.77;101267.05;105350;1287;59315;-83
2023/07/10 03:12:05;;;;;;;5.60;3.20;;;;;;;16.89;50.80;101267.53;105362;1287;75140;-82
2023/07/10 03:14:51;;;;;;;5.80;3.00;;;;;;;16.90;50.91;101265.26;105354;1287;69558;-83
2023/07/10 03:17:38;;;;;;;3.00;2.80;;;;;;;16.89;50.91;101258.14;105406;1291;73117;-83
2023/07/10 03:20:24;;;;;;;4.20;2.90;;;;;;;16.91;50.92;101260.34;105347;1286;60984;-83
2023/07/10 03:23:10;;;;;;;4.40;3.10;;;;;;;16.86;51.07;101256.48;105317;1286;61180;-83
2023/07/10 03:25:56;;;;;;;5.30;2.40;;;;;;;16.82;51.10;101254.52;105416;1286;75994;-83
2023/07/10 03:28:42;;;;;;;3.00;2.70;;;;;;;16.83;51.26;101255.70;105413;1287;67332;-83
2023/07/10 03:31:28;;;;;;;3.70;2.70;;;;;;;16.86;51.24;101255.11;105273;1286;71454;-83
2023/07/10 03:34:15;;;;;;;4.80;3.10;;;;;;;16.90;51.29;101253.92;97937;1288;10002168;-83
2023/07/10 03:37:02;;;;;;;;;;;;;;;16.93;51.32;101253.47;105279;1286;74735;-83
2023/07/10 03:39:48;;;;;;;5.20;3.70;;;;;;;16.95;51.38;101252.03;105379;1287;67906;-83
2023/07/10 03:42:34;;;;;;;4.10;3.00;;;;;;;16.97;51.50;101252.83;105316;1287;71158;-83
2023/07/10 03:45:20;;;;;;;4.80;4.40;;;;;;;17.00;51.50;101253.07;105233;1286;61066;-83
2023/07/10 03:48:07;;;;;;;3.80;3.30;;;;;;;17.02;51.51;101253.70;105276;1286;59963;-83
2023/07/10 03:50:53;;;;;;;4.40;3.50;;;;;;;17.03;51.61;101253.16;105183;1288;73434;-83
2023/07/10 03:53:39;;;;;;;3.50;3.00;;;;;;;17.03;51.76;101253.14;105317;1286;68290;-82
2023/07/10 03:56:25;;;;;;;;;;;;;;;17.02;51.82;101246.93;105316;1288;75731;-83
2023/07/10 03:59:12;;;;;;;3.50;2.60;;;;;;;17.00;51.80;101244.37;105359;1286;61346;-83
2023/07/10 04:01:58;;;;;;;3.90;3.00;;;;;;;17.00;51.85;101237.58;105356;1288;61186;-83
2023/07/10 04:04:44;;;;;;;3.30;2.50;;;;;;;16.99;51.98;101236.74;105306;1286;76010;-83
2023/07/10 04:07:30;;;;;;;2.90;2.50;;;;;;;17.01;52.06;101238.23;105319;1287;68751;-83
2023/07/10 04:10:16;;;;;;;3.40;2.90;;;;;;;17.04;52.19;101237.61;105334;1286;72859;-83
2023/07/10 04:13:02;;;;;;;4.80;2.90;;;;;;;17.09;52.12;101236.40;105338;1288;61376;-83
2023/07/10 04:16:22;;;;;;;6.30;3.30;;;;;;;17.20;52.16;101235.67;105369;1287;61393;-83
2023/07/10 04:19:09;;;;;;;6.90;3.40;;;;;;;17.30;52.33;101233.77;105308;1291;75982;-84
2023/07/10 04:21:56;;;;;;;3.70;3.10;;;;;;;17.36;52.33;101234.78;105336;1291;68126;-84
2023/07/10 04:24:42;;;;;;;3.50;2.70;;;;;;;17.42;52.52;101232.13;105347;1287;70726;-84
2023/07/10 04:27:28;;;;;;;;;;;;;;;17.49;52.50;101231.35;105260;1286;61254;-84
2023/07/10 04:30:15;;;;;;;4.60;2.60;;;;;;;17.55;52.55;101229.58;105455;1286;61125;-84
2023/07/10 04:33:01;;;;;;;3.80;3.40;;;;;;;17.59;52.67;101227.55;105359;1288;74419;-84
2023/07/10 04:35:55;;;;;;;7.10;4.70;;;;;;;17.62;52.65;101227.61;105421;1286;67273;-84
2023/07/10 04:38:42;;;;;;;14.00;4.30;;;;;;;17.72;52.63;101231.79;105445;1288;70910;-84
2023/07/10 04:41:28;;;;;;;14.00;3.20;;;;;;;17.81;52.56;101233.02;105254;1288;59009;-84
2023/07/10 04:44:14;;;;;;;;;;;;;;;17.90;52.67;101234.98;105333;1287;59617;-84
2023/07/10 04:47:00;;;;;;;13.50;4.50;;;;;;;17.97;52.71;101232.29;105169;1286;74952;-83
2023/07/10 04:49:46;;;;;;;9.10;3.50;;;;;;;18.04;52.84;101230.11;105025;1286;68359;-84
2023/07/10 04:52:33;;;;;;;9.50;3.80;;;;;;;18.07;52.79;101228.93;105009;1286;71188;-84
2023/07/10 04:55:19;;;;;;;7.30;3.10;;;;;;;18.16;52.90;101225.63;105081;1288;61163;-84
2023/07/10 04:58:05;;;;;;;6.40;3.30;;;;;;;18.26;52.93;101224.70;105491;1286;61807;-84
2023/07/10 05:00:53;;;;;;;10.10;3.20;;;;;;;18.39;53.02;101225.09;105422;1288;74639;-84
2023/07/10 05:03:39;;;;;;;6.60;3.20;;;;;;;18.55;53.01;101227.41;105295;1286;68275;-83
2023/07/10 05:06:27;;;;;;;6.80;3.40;;;;;;;18.82;53.05;101234.89;105308;1288;72385;-84
2023/07/10 05:09:13;;;;;;;9.80;3.10;;;;;;;19.18;53.16;101237.77;105310;1286;59260;-84
2023/07/10 05:11:59;;;;;;;7.30;3.40;;;;;;;19.67;53.17;101232.16;105358;1286;60232;-82
2023/07/10 05:14:45;;;;;;;11.10;2.80;;;;;;;20.24;52.84;101229.94;105297;1286;76053;-82
2023/07/10 05:17:31;;;;;;;4.50;3.00;;;;;;;20.67;52.65;101229.33;105241;1288;68355;-82
2023/07/10 05:20:18;;;;;;;4.10;2.70;;;;;;;21.00;52.46;101228.74;105314;1287;72460;-82
2023/07/10 05:23:04;;;;;;;5.20;3.10;;;;;;;21.21;52.12;101228.91;105285;1286;59356;-82
2023/07/10 05:26:11;;;;;;;4.80;3.40;;;;;;;21.30;52.04;101230.04;105376;1287;61369;-82
2023/07/10 05:28:57;;;;;;;5.50;3.20;;;;;;;21.38;51.96;101235.39;101447;1286;5055246;-81
2023/07/10 05:31:43;;;;;;;6.20;2.70;;;;;;;21.44;51.88;101236.32;105273;1288;67273;-82
2023/07/10 05:34:32;;;;;;;7.30;3.00;;;;;;;21.51;51.81;101238.98;105185;1286;71188;-82
2023/07/10 05:37:19;;;;;;;4.80;3.00;;;;;;;21.52;51.66;101241.54;105312;1286;61095;-82
2023/07/10 05:40:06;;;;;;;5.30;3.00;;;;;;;21.53;51.61;101246.76;105274;1286;61224;-82
2023/07/10 05:42:52;;;;;;;5.40;2.80;;;;;;;21.54;51.49;101245.80;106053;1287;74573;-82
2023/07/10 05:45:38;;;;;;;4.50;2.60;;;;;;;21.54;51.50;101244.41;105246;1285;69211;-82
2023/07/10 05:48:25;;;;;;;6.40;3.40;;;;;;;21.52;51.48;101237.13;105309;1289;75391;-82
2023/07/10 05:51:11;;;;;;;2.90;2.70;;;;;;;21.49;51.48;101228.87;105253;1288;61126;-82
2023/07/10 05:53:57;;;;;;;4.30;3.00;;;;;;;21.40;51.70;101229.34;105098;1288;61145;-83
2023/07/10 05:56:43;;;;;;;4.40;2.60;;;;;;;21.36;51.49;101227.27;105341;1287;77511;-83
2023/07/10 05:59:29;;;;;;;6.40;3.00;;;;;;;21.45;51.61;101216.96;105349;1286;67192;-82
2023/07/10 06:02:16;;;;;;;3.00;2.60;;;;;;;21.55;51.69;101213.29;105284;1288;71837;-82
2023/07/10 06:05:02;;;;;;;4.00;2.50;;;;;;;21.66;51.65;101214.68;105283;1287;59369;-82
2023/07/10 06:07:48;;;;;;;5.40;2.80;;;;;;;21.91;51.77;101215.05;105319;1291;59791;-82
2023/07/10 06:10:35;;;;;;;5.00;3.00;;;;;;;22.23;51.42;101207.87;105341;1287;73417;-83
2023/07/10 06:13:22;;;;;;;5.10;2.70;;;;;;;22.37;51.22;101203.36;105433;1290;69982;-82
2023/07/10 06:16:10;;;;;;;5.70;3.00;;;;;;;22.41;51.37;101198.77;105141;1288;72068;-83
2023/07/10 06:18:57;;;;;;;6.20;3.00;;;;;;;22.45;51.12;101205.02;105351;1287;59378;-83
2023/07/10 06:21:46;;;;;;;3.60;2.80;;;;;;;22.47;51.05;101211.42;105333;1287;61458;-82
2023/07/10 06:24:32;;;;;;;8.10;2.70;;;;;;;22.50;51.16;101217.25;105149;1286;73803;-83
2023/07/10 06:27:18;;;;;;;13.40;3.10;;;;;;;22.48;51.20;101221.39;105389;1287;68361;-82
2023/07/10 06:30:05;;;;;;;7.40;3.10;;;;;;;22.52;51.23;101223.48;105346;1287;72899;-83
2023/07/10 06:32:51;;;;;;;8.40;3.00;;;;;;;22.63;51.18;101229.19;105380;1287;61196;-83
2023/07/10 06:35:38;;;;;;;13.20;3.60;;;;;;;22.78;51.21;101224.30;105413;1287;61115;-83
2023/07/10 06:38:24;;;;;;;3.80;3.00;;;;;;;22.86;51.07;101218.73;105364;1287;73461;-82
2023/07/10 06:41:12;;;;;;;8.20;3.10;;;;;;;22.94;50.90;101216.00;105170;1287;68607;-82
2023/07/10 06:43:58;;;;;;;7.80;3.30;;;;;;;22.91;50.84;101209.10;105295;1287;72905;-83
2023/07/10 06:46:45;;;;;;;7.40;3.00;;;;;;;22.90;50.82;101203.70;105321;1288;62729;-83
2023/07/10 06:49:31;;;;;;;6.10;2.60;;;;;;;22.91;50.90;101210.71;105409;1288;61104;-83
2023/07/10 06:52:17;;;;;;;4.90;3.20;;;;;;;22.97;50.88;101212.63;105289;1288;73268;-83
2023/07/10 06:55:04;;;;;;;2.90;2.40;;;;;;;22.98;50.85;101210.98;105386;1287;68411;-83
2023/07/10 06:57:50;;;;;;;8.90;2.80;;;;;;;23.01;50.80;101213.07;105345;1291;71919;-83
2023/07/10 07:00:37;;;;;;;3.10;2.70;;;;;;;23.03;50.71;101210.70;105231;1288;61298;-82
2023/07/10 07:03:23;;;;;;;5.40;3.00;;;;;;;23.06;50.67;101210.13;105032;1287;297143;-83
2023/07/10 07:06:09;;;;;;;;;;;;;;;23.12;50.69;101205.96;105259;1286;73152;-82
2023/07/10 07:08:56;;;;;;;3.60;2.80;;;;;;;23.01;50.68;101197.05;105376;1291;67323;-82
2023/07/10 07:11:42;;;;;;;7.30;2.70;;;;;;;22.90;50.76;101193.36;105266;1288;74090;-83
2023/07/10 07:14:28;;;;;;;5.40;2.90;;;;;;;22.86;50.80;101191.32;105267;1286;59310;-83
2023/07/10 07:17:15;;;;;;;3.10;2.80;;;;;;;22.80;50.71;101187.98;105331;1286;59304;-83
2023/07/10 07:20:01;;;;;;;;;;;;;;;22.70;50.56;101192.91;105339;1288;74016;-83
2023/07/10 07:22:47;;;;;;;4.80;2.80;;;;;;;22.60;50.70;101199.46;105245;1289;67459;-82
2023/07/10 07:25:33;;;;;;;4.20;2.70;;;;;;;22.58;50.82;101202.03;105283;1288;71010;-83
2023/07/10 07:28:19;;;;;;;4.40;2.90;;;;;;;22.58;50.85;101203.11;105219;1288;61240;-82
2023/07/10 07:31:06;;;;;;;10.50;2.80;;;;;;;22.57;50.93;101199.63;105321;1288;60313;-82
2023/07/10 07:33:52;;;;;;;;;;;;;;;22.52;50.92;101199.73;105235;1291;75944;-83
2023/07/10 07:36:38;;;;;;;3.20;2.70;;;;;;;22.53;51.07;101205.13;105284;1288;70232;-83
2023/07/10 07:39:30;;;;;;;6.60;3.00;;;;;;;22.56;50.88;101212.55;105233;1288;72113;-82
2023/07/10 07:42:16;;;;;;;8.30;2.80;;;;;;;22.55;50.98;101216.10;105322;1287;60611;-82
2023/07/10 07:45:03;;;;;;;3.20;2.60;;;;;;;22.56;51.00;101220.23;105384;1287;60281;-83
2023/07/10 07:47:49;;;;;;;9.70;3.00;;;;;;;22.60;51.02;101218.77;105346;1288;77318;-83
2023/07/10 07:50:36;;;;;;;4.10;2.70;;;;;;;22.65;51.11;101217.83;105214;1287;67658;-83
2023/07/10 07:53:22;;;;;;;7.20;3.40;;;;;;;22.66;51.02;101211.96;105101;1286;71360;-83
2023/07/10 07:56:09;;;;;;;6.10;3.00;;;;;;;22.64;51.12;101211.17;105211;1287;59297;-83
2023/07/10 07:58:55;;;;;;;5.60;2.70;;;;;;;22.62;51.13;101197.25;105316;1287;61160;-83
2023/07/10 08:01:42;;;;;;;7.60;3.10;;;;;;;22.61;51.08;101188.86;105259;1288;73359;-83
2023/07/10 08:04:28;;;;;;;4.10;2.80;;;;;;;22.59;51.19;101194.63;105179;1287;69967;-83
2023/07/10 08:07:14;;;;;;;3.70;2.60;;;;;;;22.60;51.28;101214.94;105187;1288;70168;-83
2023/07/10 08:10:01;;;;;;;5.10;3.00;;;;;;;22.64;51.22;101228.39;105296;1286;61257;-83
2023/07/10 08:12:47;;;;;;;9.20;3.00;;;;;;;22.70;51.26;101236.30;105306;1288;59305;-83
2023/07/10 08:15:33;;;;;;;6.40;2.70;;;;;;;22.80;51.37;101227.72;105136;1288;77400;-83
2023/07/10 08:18:20;;;;;;;3.20;2.90;;;;;;;22.91;51.46;101216.16;105176;1288;67999;-83
2023/07/10 08:21:08;;;;;;;6.10;2.90;;;;;;;23.18;51.44;101224.09;105197;1288;71325;-83
2023/07/10 08:23:54;;;;;;;8.30;2.80;;;;;;;23.57;51.42;101223.09;105175;1289;61292;-83
2023/07/10 08:26:41;;;;;;;5.70;3.00;;;;;;;24.57;50.86;101213.12;105227;1286;61158;-82
2023/07/10 08:29:30;;;;;;;3.30;3.00;;;;;;;25.13;50.62;101212.72;105258;1286;73237;-83
2023/07/10 08:32:16;;;;;;;2.80;2.50;;;;;;;25.79;50.88;101221.40;105385;1288;67391;-83
2023/07/10 08:35:01;;;;;;;9.90;3.00;;;;;;;27.04;49.91;101226.77;105397;1288;74329;-83
2023/07/10 08:37:48;;;;;;;4.20;3.00;;;;;;;27.10;49.79;101227.64;105371;1287;59588;-83
2023/07/10 08:40:37;;;;;;;6.70;2.80;;;;;;;27.16;49.85;101230.86;105378;1288;61257;-83
2023/07/10 08:43:39;;;;;;;7.80;3.00;;;;;;;27.65;49.75;101229.73;105235;1287;74087;-83
2023/07/10 08:46:26;;;;;;;2.90;2.70;;;;;;;27.74;48.95;101222.83;105315;1286;67411;-83
2023/07/10 08:49:38;;;;;;;5.20;3.20;;;;;;;27.87;49.25;101217.51;105267;1290;71673;-83
2023/07/10 08:52:58;;;;;;;11.90;3.80;;;;;;;29.46;49.27;101222.23;105281;1286;61200;-83
2023/07/10 08:55:55;;;;;;;4.60;2.90;;;;;;;31.88;47.80;101228.40;105192;1288;61241;-84
2023/07/10 08:58:41;;;;;;;3.50;2.90;;;;;;;33.80;47.33;101223.11;105355;1286;74621;-84
2023/07/10 09:01:36;;;;;;;3.50;2.20;;;;;;;35.11;46.41;101226.70;105328;1287;68483;-83
2023/07/10 09:04:23;;;;;;;4.10;2.40;;;;;;;35.08;45.65;101224.73;105266;1291;71264;-83
2023/07/10 09:07:10;;;;;;;3.10;2.50;;;;;;;34.20;45.25;101219.43;105244;1288;61313;-83
2023/07/10 09:10:01;;;;;;;6.40;2.40;;;;;;;33.59;45.15;101215.95;105361;1286;59307;-83
2023/07/10 09:12:53;;;;;;;3.10;2.80;;;;;;;33.06;44.62;101209.05;105208;1290;74799;-83
2023/07/10 09:15:49;;;;;;;3.00;2.60;;;;;;;32.32;44.42;101213.05;105344;1286;67186;-83
2023/07/10 09:18:41;;;;;;;3.20;2.40;;;;;;;31.83;43.78;101214.10;105393;1287;71541;-83
2023/07/10 09:21:36;;;;;;;3.90;2.50;;;;;;;31.56;43.34;101209.81;105377;1286;61225;-83
2023/07/10 09:24:23;;;;;;;4.00;2.40;;;;;;;31.40;43.16;101202.72;105431;1287;60408;-83
2023/07/10 09:27:14;;;;;;;5.00;2.90;;;;;;;31.14;42.49;101195.38;105408;1288;76481;-85
2023/07/10 09:30:01;;;;;;;10.30;2.70;;;;;;;30.80;42.30;101186.16;105526;1291;67551;-85
2023/07/10 09:32:59;;;;;;;2.90;2.30;;;;;;;30.44;42.01;101182.09;105187;1286;201705;-83
2023/07/10 09:35:47;;;;;;;4.40;2.80;;;;;;;30.13;41.70;101180.32;105320;1286;61311;-83
2023/07/10 09:38:33;;;;;;;3.80;2.80;;;;;;;29.84;41.63;101176.34;105389;1286;60097;-83
2023/07/10 09:41:26;;;;;;;4.00;2.80;;;;;;;29.70;41.40;101166.39;105255;1288;74156;-82
2023/07/10 09:44:22;;;;;;;4.30;2.30;;;;;;;29.57;41.14;101163.45;105298;1287;67244;-82
2023/07/10 09:47:11;;;;;;;4.50;2.50;;;;;;;29.46;41.05;101153.92;105451;1286;71314;-83
2023/07/10 09:50:00;;;;;;;4.40;2.70;;;;;;;29.36;40.93;101143.69;105272;1291;61707;-82
2023/07/10 09:52:53;;;;;;;5.20;2.30;;;;;;;29.25;40.80;101143.61;105385;1288;61244;-83
2023/07/10 09:55:43;;;;;;;5.10;2.60;;;;;;;29.05;40.79;101141.25;105235;1288;76129;-82
2023/07/10 09:58:30;;;;;;;4.40;2.30;;;;;;;28.89;40.71;101131.66;105303;1286;68659;-83
2023/07/10 10:01:17;;;;;;;;;;;;;;;28.78;40.76;101125.64;105378;1291;72063;-82
2023/07/10 10:04:03;;;;;;;2.80;2.40;;;;;;;28.62;40.65;101116.85;105378;1287;61296;-82
2023/07/10 10:07:01;;;;;;;2.40;2.20;;;;;;;28.43;40.55;101109.48;105433;1288;61144;-82
2023/07/10 10:10:01;;;;;;;3.90;2.10;;;;;;;28.18;40.51;101097.68;105373;1288;73243;-82
2023/07/10 10:12:53;;;;;;;9.20;2.40;;;;;;;27.93;40.50;101094.61;105410;1291;67584;-82
2023/07/10 10:16:09;;;;;;;6.90;2.40;;;;;;;27.79;40.63;101089.20;105349;1286;72644;-83
2023/07/10 10:18:58;;;;;;;6.90;2.80;;;;;;;27.64;40.61;101074.08;104807;1294;61175;-82
2023/07/10 10:21:44;;;;;;;3.00;2.20;;;;;;;27.47;40.56;101069.78;104742;1292;59264;-82
2023/07/10 10:24:32;;;;;;;7.30;2.50;;;;;;;27.29;40.57;101057.58;104693;1297;73314;-82
2023/07/10 10:27:40;;;;;;;6.50;2.60;;;;;;;27.06;40.61;101052.51;104668;1293;68668;-82
2023/07/10 10:30:44;;;;;;;6.70;2.20;;;;;;;26.88;40.85;101043.62;104736;1293;72563;-82
2023/07/10 10:33:41;;;;;;;4.80;2.50;;;;;;;26.72;40.81;101040.62;104673;1294;61047;-83
2023/07/10 10:36:43;;;;;;;2.70;2.10;;;;;;;26.57;40.92;101042.35;104749;1294;61273;-82
2023/07/10 10:39:42;;;;;;;7.20;2.50;;;;;;;26.49;41.14;101043.17;104744;1294;75271;-83
2023/07/10 10:42:43;;;;;;;4.10;2.40;;;;;;;26.48;41.23;101044.67;104693;1295;70111;-82
2023/07/10 10:45:42;;;;;;;6.50;2.50;;;;;;;26.47;41.12;101046.27;104681;1294;71416;-82
2023/07/10 10:48:35;;;;;;;2.40;2.00;;;;;;;26.51;41.36;101050.06;104721;1298;61446;-82
2023/07/10 10:51:55;;;;;;;3.00;2.60;;;;;;;26.55;41.20;101055.73;104773;1294;59365;-82
2023/07/10 10:54:50;;;;;;;2.80;2.60;;;;;;;26.56;41.23;101055.15;104337;1294;73296;-82
2023/07/10 10:58:11;;;;;;;3.00;2.60;;;;;;;26.58;41.36;101059.25;104718;1298;67361;-82
2023/07/10 11:01:18;;;;;;;3.30;2.20;;;;;;;26.63;41.37;101058.09;104655;1294;71234;-82
2023/07/10 11:04:45;;;;;;;5.10;1.80;;;;;;;26.63;41.29;101050.66;104219;1300;61308;-82
2023/07/10 11:07:32;;;;;;;2.30;2.10;;;;;;;26.66;41.42;101046.93;104074;1308;61723;-83
2023/07/10 11:10:39;;;;;;;7.10;2.60;;;;;;;26.73;41.34;101045.72;104591;1308;73535;-83
2023/07/10 11:13:33;;;;;;;10.60;2.90;;;;;;;26.86;41.34;101043.23;104859;1306;68153;-83
2023/07/10 11:16:19;;;;;;;3.60;2.20;;;;;;;26.97;41.17;101045.92;104876;1305;71402;-83
2023/07/10 11:19:06;;;;;;;6.40;2.70;;;;;;;27.03;41.08;101042.84;104895;1309;58986;-83
2023/07/10 11:21:52;;;;;;;8.20;2.40;;;;;;;27.13;41.19;101045.77;104633;1306;60000;-83
2023/07/10 11:24:48;;;;;;;5.60;2.30;;;;;;;27.19;41.02;101041.58;103819;1307;73490;-82
2023/07/10 11:27:41;;;;;;;3.80;2.10;;;;;;;27.22;40.77;101029.45;103776;1305;67389;-82
2023/07/10 11:30:33;;;;;;;10.10;2.40;;;;;;;27.22;40.74;101021.87;103730;1305;71172;-82
2023/07/10 11:33:21;;;;;;;2.40;2.20;;;;;;;27.26;40.71;101020.13;104216;1300;59495;-82
2023/07/10 11:36:25;;;;;;;3.90;2.10;;;;;;;27.29;40.54;101012.56;104127;1305;61262;-82
2023/07/10 11:39:29;;;;;;;9.20;2.30;;;;;;;27.36;40.55;101009.94;104628;1294;73458;-82
2023/07/10 11:42:17;;;;;;;3.30;2.20;;;;;;;27.49;40.46;101013.98;105121;1288;67214;-82
2023/07/10 11:45:07;;;;;;;3.30;2.40;;;;;;;27.58;40.25;101010.98;105305;1287;71408;-84
2023/07/10 11:47:56;;;;;;;3.60;2.00;;;;;;;27.65;40.18;101008.30;105238;1291;61031;-85
2023/07/10 11:50:42;;;;;;;4.30;2.20;;;;;;;27.79;40.14;101013.69;105176;1288;63467;-85
2023/07/10 11:53:28;;;;;;;2.20;2.00;;;;;;;27.90;39.77;101009.94;105337;1291;74442;-85
2023/07/10 11:56:14;;;;;;;4.00;2.00;;;;;;;27.98;39.66;101007.98;105241;1286;68499;-85
2023/07/10 11:59:14;;;;;;;;;;;;;;;28.02;39.72;100999.57;105238;1289;71358;-85
2023/07/10 12:02:00;;;;;;;3.20;2.20;;;;;;;28.13;39.42;100997.94;105217;1287;61243;-85
2023/07/10 12:04:47;;;;;;;4.10;2.50;;;;;;;28.15;39.52;100988.67;105202;1287;61257;-85
2023/07/10 12:07:33;;;;;;;3.10;2.10;;;;;;;28.16;39.27;100977.63;105276;1286;73660;-85
2023/07/10 12:10:20;;;;;;;2.10;1.90;;;;;;;28.22;39.21;100981.77;105166;1287;67752;-85
2023/07/10 12:13:27;;;;;;;4.60;1.70;;;;;;;28.28;39.18;100976.64;105374;1289;71278;-85
2023/07/10 12:16:14;;;;;;;3.40;2.40;;;;;;;28.30;38.95;100975.17;105303;1291;61523;-85
2023/07/10 12:19:14;;;;;;;3.60;2.10;;;;;;;28.32;38.76;100962.48;105385;1287;61127;-85
2023/07/10 12:22:02;;;;;;;2.70;1.90;;;;;;;28.34;38.69;100964.96;105135;1288;73267;-85
2023/07/10 12:24:50;;;;;;;2.80;2.00;;;;;;;28.37;38.68;100963.13;105229;1287;67693;-85
2023/07/10 12:27:37;;;;;;;3.00;2.30;;;;;;;28.38;38.51;100967.08;105277;1291;71505;-85
2023/07/10 12:30:26;;;;;;;3.00;1.80;;;;;;;28.43;38.29;100964.56;105194;1293;60591;-85
2023/07/10 12:33:36;;;;;;;4.40;1.90;;;;;;;28.52;38.33;100966.06;105282;1286;63570;-85
2023/07/10 12:36:29;;;;;;;2.30;2.20;;;;;;;28.62;38.14;100961.60;105368;1291;76011;-85
2023/07/10 12:39:16;;;;;;;6.40;2.00;;;;;;;28.76;38.07;100957.58;105272;1289;67183;-85
2023/07/10 12:42:02;;;;;;;;;;;;;;;28.93;37.95;100958.58;105326;1287;71956;-85
2023/07/10 12:44:48;;;;;;;2.10;1.90;;;;;;;29.06;37.73;100952.88;105228;1291;61191;-85
2023/07/10 12:47:35;;;;;;;3.80;2.00;;;;;;;29.10;37.62;100946.60;105252;1286;61361;-85
2023/07/10 12:50:33;;;;;;;7.50;2.10;;;;;;;29.16;37.65;100944.27;105226;1286;73321;-83
2023/07/10 12:53:22;;;;;;;3.80;2.50;;;;;;;29.19;37.53;100947.55;105380;1290;68588;-82
2023/07/10 12:56:25;;;;;;;1.80;1.50;;;;;;;29.22;37.31;100943.39;105344;1288;72834;-82
2023/07/10 12:59:11;;;;;;;3.40;2.10;;;;;;;29.25;37.04;100939.36;105203;1288;61350;-82
2023/07/10 13:02:27;;;;;;;4.10;2.10;;;;;;;29.24;36.88;100940.70;105388;1286;59234;-82